Startpagina
METAR-TAF:

METAR-TAF

Vliegvelden :

Indore, India

breedte: 22-43N, lengte: 075-48E, hoogte: 561 m

Actueel weer

Dit bericht is 44 minuten geleden gemaakt, om 18:00 UTC
Wind 6 kt uit het oosten
Temperatuur 22°C
Vochtigheid 50%
Druk 1016 hPa
Zicht: 4000 m
Heiigheid

METAR: VAID 161800Z 09006KT 4000 HZ NSC 22/11 Q1016 NOSIG

Tijdstip: 00:14 (18:44 UTC)


TAF: ontbreekt

Waarnemingen en weersverwachtingen van meer dan 4000 vliegvelden (METAR en TAF).

De beschikbare stations zijn de gele en rode punten op de kaart.

Ga met uw muis naar het station om de naam te zien.

Klik dan om waarnemingen en weersverwachtingen te zien.

kaart wijzigen: klik op de groene knoppen met een zwart kruis om in te zoomen, op de groene knop met een streepje om uit te zoomen of op de groene pijlen voor aangrenzende kaarten.


METAR-TAF: